createdAt,value
2022-11-05T00:00:45.046Z,15.73
2022-11-05T00:03:12.641Z,12.43
2022-11-05T00:05:39.453Z,16.70
2022-11-05T00:08:08.938Z,11.07
2022-11-05T00:10:37.741Z,10.02
2022-11-05T00:13:07.567Z,14.32
2022-11-05T00:15:34.799Z,11.17
2022-11-05T00:18:01.643Z,12.48
2022-11-05T00:20:28.540Z,12.25
2022-11-05T00:23:00.297Z,11.18
2022-11-05T00:25:28.469Z,11.43
2022-11-05T00:28:00.712Z,12.10
2022-11-05T00:30:28.226Z,9.48
2022-11-05T00:33:01.017Z,11.18
2022-11-05T00:35:27.923Z,9.90
2022-11-05T00:37:54.583Z,9.82
2022-11-05T00:40:21.249Z,10.50
2022-11-05T00:42:49.242Z,8.38
2022-11-05T00:45:16.350Z,10.38
2022-11-05T00:47:43.341Z,14.85
2022-11-05T00:50:11.993Z,12.48
2022-11-05T00:52:38.894Z,10.83
2022-11-05T00:55:05.768Z,9.13
2022-11-05T00:57:32.281Z,10.60
2022-11-05T01:00:01.411Z,8.85
2022-11-05T01:02:27.985Z,8.70
2022-11-05T01:04:54.735Z,9.90
2022-11-05T01:07:21.648Z,8.30
2022-11-05T01:09:48.166Z,10.60
2022-11-05T01:12:15.136Z,10.27
2022-11-05T01:14:41.800Z,9.02
2022-11-05T01:17:09.744Z,11.83
2022-11-05T01:19:36.345Z,12.77
2022-11-05T01:22:02.823Z,11.40
2022-11-05T01:24:29.998Z,11.43
2022-11-05T01:26:56.786Z,9.13
2022-11-05T01:29:23.532Z,12.33
2022-11-05T01:31:50.078Z,11.55
2022-11-05T01:34:18.167Z,13.15
2022-11-05T01:36:44.854Z,8.90
2022-11-05T01:39:11.566Z,10.40
2022-11-05T01:41:38.155Z,10.67
2022-11-05T01:44:08.156Z,8.68
2022-11-05T01:46:38.659Z,8.60
2022-11-05T01:49:16.875Z,9.18
2022-11-05T01:51:46.591Z,11.05
2022-11-05T01:54:15.872Z,8.33
2022-11-05T01:56:47.018Z,10.85
2022-11-05T01:59:18.508Z,14.07
2022-11-05T02:01:45.312Z,10.65
2022-11-05T02:04:22.053Z,11.23
2022-11-05T02:06:50.666Z,11.03
2022-11-05T02:09:24.587Z,11.43
2022-11-05T02:11:51.610Z,12.88
2022-11-05T02:14:18.415Z,10.57
2022-11-05T02:16:50.823Z,12.40
2022-11-05T02:20:01.789Z,10.27
2022-11-05T02:23:04.005Z,10.88
2022-11-05T02:25:56.574Z,9.63
2022-11-05T02:28:57.006Z,10.15
2022-11-05T02:31:35.439Z,10.43
2022-11-05T02:34:17.250Z,10.73
2022-11-05T02:36:49.982Z,12.15
2022-11-05T02:39:29.543Z,14.75
2022-11-05T02:42:05.779Z,12.13
2022-11-05T02:44:41.429Z,32.50
2022-11-05T02:47:22.928Z,34.97
2022-11-05T02:49:58.180Z,30.33
2022-11-05T02:52:32.264Z,17.67
2022-11-05T02:55:06.826Z,22.98
2022-11-05T02:57:36.451Z,24.58
2022-11-05T03:00:07.136Z,24.57
2022-11-05T03:02:35.685Z,13.95
2022-11-05T03:05:05.116Z,7.00
2022-11-05T03:07:40.487Z,7.95
2022-11-05T03:10:24.414Z,9.02
2022-11-05T03:13:02.130Z,8.93
2022-11-05T03:15:42.616Z,8.38
2022-11-05T03:18:18.602Z,7.57
2022-11-05T03:20:52.178Z,8.68
2022-11-05T03:23:27.086Z,10.43
2022-11-05T03:25:59.265Z,10.83
2022-11-05T03:28:30.156Z,9.45
2022-11-05T03:30:58.521Z,13.68
2022-11-05T03:33:31.290Z,11.07
2022-11-05T03:36:04.164Z,9.70
2022-11-05T03:38:35.004Z,8.47
2022-11-05T03:41:07.801Z,8.30
2022-11-05T03:43:38.140Z,12.50
2022-11-05T03:46:10.145Z,12.80
2022-11-05T03:48:44.848Z,14.13
2022-11-05T03:51:18.032Z,25.47
2022-11-05T03:53:50.001Z,57.00
2022-11-05T03:56:20.912Z,61.25
2022-11-05T03:58:48.285Z,39.60
2022-11-05T04:01:15.842Z,50.40
2022-11-05T04:03:44.620Z,84.20
2022-11-05T04:06:13.955Z,72.93
2022-11-05T04:08:40.816Z,44.17
2022-11-05T04:11:08.216Z,108.75
2022-11-05T04:13:35.058Z,62.90
2022-11-05T04:16:02.009Z,25.10
2022-11-05T04:18:29.107Z,46.70
2022-11-05T04:20:57.287Z,10.95
2022-11-05T04:23:24.153Z,9.32
2022-11-05T04:25:52.631Z,10.63
2022-11-05T04:28:19.752Z,13.23
2022-11-05T04:30:46.582Z,14.10
2022-11-05T04:33:15.169Z,9.40
2022-11-05T04:35:44.605Z,10.52
2022-11-05T04:38:16.170Z,9.70
2022-11-05T04:40:43.687Z,10.20
2022-11-05T04:43:15.076Z,12.55
2022-11-05T04:45:42.877Z,7.30
2022-11-05T04:48:10.281Z,9.30
2022-11-05T04:50:37.080Z,7.85
2022-11-05T04:53:03.719Z,8.23
2022-11-05T04:55:35.500Z,8.30
2022-11-05T04:58:02.341Z,9.38
2022-11-05T05:00:29.340Z,8.68
2022-11-05T05:02:57.300Z,7.90
2022-11-05T05:05:24.167Z,10.50
2022-11-05T05:07:50.708Z,8.35
2022-11-05T05:10:17.774Z,8.60
2022-11-05T05:12:45.688Z,9.45
2022-11-05T05:15:12.513Z,9.57
2022-11-05T05:17:39.171Z,8.30
2022-11-05T05:20:06.845Z,9.20
2022-11-05T05:22:33.438Z,10.45
2022-11-05T05:25:00.138Z,11.40
2022-11-05T05:27:27.734Z,10.57
2022-11-05T05:29:55.968Z,11.60
2022-11-05T05:32:23.033Z,8.82
2022-11-05T05:34:50.163Z,9.00
2022-11-05T05:37:16.702Z,10.77
2022-11-05T05:39:44.938Z,10.35
2022-11-05T05:42:13.415Z,10.43
2022-11-05T05:44:40.710Z,10.15
2022-11-05T05:47:08.669Z,12.40
2022-11-05T05:49:35.273Z,11.70
2022-11-05T05:52:02.058Z,13.90
2022-11-05T05:54:32.327Z,15.10
2022-11-05T05:57:00.809Z,13.13
2022-11-05T05:59:27.415Z,8.80
2022-11-05T06:01:54.296Z,14.02
2022-11-05T06:04:22.948Z,13.02
2022-11-05T06:06:49.648Z,12.40
2022-11-05T06:09:16.625Z,14.27
2022-11-05T06:11:43.527Z,12.63
2022-11-05T06:14:11.190Z,15.63
2022-11-05T06:16:38.182Z,10.55
2022-11-05T06:19:07.848Z,15.30
2022-11-05T06:21:35.910Z,16.48
2022-11-05T06:24:04.455Z,13.63
2022-11-05T06:26:31.338Z,13.45
2022-11-05T06:28:57.925Z,10.32
2022-11-05T06:31:24.946Z,14.20
2022-11-05T06:33:51.618Z,14.20
2022-11-05T06:36:19.456Z,14.35
2022-11-05T06:38:48.775Z,14.13
2022-11-05T06:41:15.619Z,15.10
2022-11-05T06:43:43.409Z,14.40
2022-11-05T06:46:10.852Z,22.00
2022-11-05T06:48:39.205Z,11.32
2022-11-05T06:51:06.991Z,13.82
2022-11-05T06:53:35.698Z,11.63
2022-11-05T06:56:05.517Z,14.47
2022-11-05T06:58:32.539Z,13.68
2022-11-05T07:01:04.637Z,13.48
2022-11-05T07:03:31.456Z,14.43
2022-11-05T07:05:59.800Z,12.38
2022-11-05T07:08:27.501Z,12.03
2022-11-05T07:10:54.262Z,11.57
2022-11-05T07:13:22.456Z,17.42
2022-11-05T07:15:49.114Z,13.45
2022-11-05T07:18:16.911Z,16.38
2022-11-05T07:20:46.584Z,14.00
2022-11-05T07:23:15.446Z,14.65
2022-11-05T07:25:42.939Z,13.77
2022-11-05T07:28:11.238Z,15.82
2022-11-05T07:30:41.228Z,11.65
2022-11-05T07:33:08.277Z,13.23
2022-11-05T07:35:37.257Z,15.02
2022-11-05T07:38:05.276Z,11.25
2022-11-05T07:40:32.585Z,10.75
2022-11-05T07:43:01.952Z,11.27
2022-11-05T07:45:34.441Z,12.83
2022-11-05T07:48:20.918Z,15.50
2022-11-05T07:50:52.922Z,10.90
2022-11-05T07:53:28.613Z,11.32
2022-11-05T07:56:01.711Z,14.93
2022-11-05T07:58:32.624Z,10.63
2022-11-05T08:01:02.432Z,13.57
2022-11-05T08:03:39.814Z,11.93
2022-11-05T08:06:11.481Z,9.48
2022-11-05T08:08:38.574Z,15.40
2022-11-05T08:11:15.070Z,14.33
2022-11-05T08:14:45.469Z,13.23
2022-11-05T08:16:46.571Z,15.15
2022-11-05T08:19:29.987Z,10.93
2022-11-05T08:22:00.678Z,13.18
2022-11-05T08:24:27.885Z,11.98
2022-11-05T08:27:04.652Z,15.18
2022-11-05T08:29:34.545Z,14.25
2022-11-05T08:32:02.686Z,15.23
2022-11-05T08:34:36.833Z,12.88
2022-11-05T08:37:09.860Z,15.00
2022-11-05T08:42:32.361Z,12.57
2022-11-05T08:45:00.542Z,13.55
2022-11-05T08:47:27.234Z,10.77
2022-11-05T08:49:58.494Z,15.57
2022-11-05T08:52:25.247Z,14.85
2022-11-05T08:54:52.046Z,17.10
2022-11-05T08:57:18.915Z,12.00
2022-11-05T08:59:48.369Z,11.57
2022-11-05T09:02:16.719Z,19.03
2022-11-05T09:04:43.348Z,12.52
2022-11-05T09:07:11.623Z,18.45
2022-11-05T09:09:38.352Z,19.13
2022-11-05T09:12:12.441Z,14.43
2022-11-05T09:14:39.745Z,12.87
2022-11-05T09:17:15.746Z,12.45
2022-11-05T09:19:42.574Z,18.92
2022-11-05T09:22:09.150Z,13.63
2022-11-05T09:24:38.317Z,15.80
2022-11-05T09:27:04.916Z,13.03
2022-11-05T09:29:40.392Z,21.00
2022-11-05T09:32:07.387Z,16.40
2022-11-05T09:34:34.594Z,15.25
2022-11-05T09:37:01.492Z,12.13
2022-11-05T09:39:30.235Z,15.03
2022-11-05T09:42:02.480Z,14.43
2022-11-05T09:44:37.716Z,13.05
2022-11-05T09:47:10.003Z,16.42
2022-11-05T09:49:39.939Z,16.73
2022-11-05T09:52:13.435Z,11.27
2022-11-05T09:54:40.126Z,16.48
2022-11-05T09:57:17.197Z,20.58
2022-11-05T09:59:47.271Z,12.07
2022-11-05T10:02:19.431Z,13.05
2022-11-05T10:04:51.450Z,13.70
2022-11-05T10:07:23.135Z,14.07
2022-11-05T10:09:54.288Z,13.25
2022-11-05T10:12:28.547Z,16.58
2022-11-05T10:15:07.502Z,12.75
2022-11-05T10:17:39.466Z,13.13
2022-11-05T10:20:14.590Z,14.02
2022-11-05T10:22:49.344Z,12.35
2022-11-05T10:25:18.817Z,15.68
2022-11-05T10:27:51.951Z,11.73
2022-11-05T10:30:19.551Z,14.63
2022-11-05T10:32:48.217Z,14.63
2022-11-05T10:35:23.215Z,10.68
2022-11-05T10:37:50.874Z,13.82
2022-11-05T10:40:30.101Z,12.80
2022-11-05T10:43:04.380Z,13.13
2022-11-05T10:45:39.119Z,12.85
2022-11-05T10:48:36.060Z,13.40
2022-11-05T10:51:06.979Z,12.05
2022-11-05T10:53:36.957Z,10.13
2022-11-05T10:56:03.951Z,11.37
2022-11-05T10:58:33.375Z,15.75
2022-11-05T11:01:04.153Z,20.42
2022-11-05T11:03:37.632Z,14.70
2022-11-05T11:06:06.551Z,9.93
2022-11-05T11:08:37.517Z,14.63
2022-11-05T11:11:07.880Z,13.77
2022-11-05T11:13:54.346Z,16.02
2022-11-05T11:16:22.578Z,10.68
2022-11-05T11:18:54.311Z,10.60
2022-11-05T11:21:21.425Z,8.17
2022-11-05T11:23:54.937Z,9.43
2022-11-05T11:26:23.557Z,6.07
2022-11-05T11:28:57.760Z,8.73
2022-11-05T11:31:26.771Z,9.27
2022-11-05T11:34:01.193Z,8.80
2022-11-05T11:36:35.628Z,12.20
2022-11-05T11:39:04.914Z,8.55
2022-11-05T11:41:35.339Z,11.05
2022-11-05T11:44:11.671Z,8.98
2022-11-05T11:46:39.704Z,10.73
2022-11-05T11:49:07.292Z,6.75
2022-11-05T11:51:36.232Z,6.90
2022-11-05T11:54:04.095Z,5.70
2022-11-05T11:56:41.833Z,8.63
2022-11-05T11:59:20.192Z,7.07
2022-11-05T12:02:18.917Z,6.38
2022-11-05T12:05:14.377Z,5.95
2022-11-05T12:07:50.470Z,5.72
2022-11-05T12:10:26.285Z,4.80
2022-11-05T12:13:37.557Z,7.83
2022-11-05T12:16:17.318Z,8.63
2022-11-05T12:18:50.321Z,5.72
2022-11-05T12:21:48.135Z,5.72
2022-11-05T12:24:28.047Z,6.30
2022-11-05T12:27:06.606Z,6.13
2022-11-05T12:29:46.911Z,5.13
2022-11-05T12:32:37.942Z,4.28
2022-11-05T12:35:16.207Z,5.10
2022-11-05T12:37:53.476Z,7.15
2022-11-05T12:40:56.327Z,4.57
2022-11-05T12:43:34.314Z,5.90
2022-11-05T12:46:11.923Z,7.63
2022-11-05T12:49:00.028Z,9.95
2022-11-05T12:51:43.220Z,6.22
2022-11-05T12:54:21.304Z,6.57
2022-11-05T12:56:50.995Z,4.47
2022-11-05T12:59:23.471Z,5.47
2022-11-05T13:02:02.416Z,3.97
2022-11-05T13:04:37.960Z,6.78
2022-11-05T13:07:09.471Z,5.37
2022-11-05T13:09:42.270Z,5.10
2022-11-05T13:12:12.801Z,3.53
2022-11-05T13:14:45.275Z,5.05
2022-11-05T13:17:16.913Z,5.10
2022-11-05T13:19:51.778Z,5.33
2022-11-05T13:22:28.124Z,4.53
2022-11-05T13:24:58.596Z,5.90
2022-11-05T13:27:46.177Z,4.45
2022-11-05T13:30:18.610Z,6.72
2022-11-05T13:32:52.019Z,4.73
2022-11-05T13:35:27.631Z,4.72
2022-11-05T13:37:59.360Z,6.32
2022-11-05T13:40:39.641Z,6.20
2022-11-05T13:43:23.302Z,7.38
2022-11-05T13:46:16.101Z,3.23
2022-11-05T13:49:07.663Z,5.70
2022-11-05T13:51:52.015Z,7.32
2022-11-05T13:54:54.812Z,4.45
2022-11-05T13:57:34.812Z,5.22
2022-11-05T14:00:09.376Z,7.43
2022-11-05T14:02:39.661Z,5.57
2022-11-05T14:05:17.218Z,4.57
2022-11-05T14:07:47.515Z,6.15
2022-11-05T14:10:25.721Z,5.32
2022-11-05T14:12:55.517Z,5.30
2022-11-05T14:15:24.787Z,3.88
2022-11-05T14:17:58.101Z,5.45
2022-11-05T14:20:42.403Z,3.92
2022-11-05T14:23:38.775Z,6.07
2022-11-05T14:26:16.547Z,5.07
2022-11-05T14:28:48.173Z,3.33
2022-11-05T14:31:54.529Z,3.28
2022-11-05T14:34:40.026Z,3.03
2022-11-05T14:37:25.254Z,3.53
2022-11-05T14:39:55.096Z,2.93
2022-11-05T14:42:26.576Z,3.60
2022-11-05T14:45:00.979Z,6.78
2022-11-05T14:47:31.234Z,10.65
2022-11-05T14:50:02.376Z,3.58
2022-11-05T14:52:29.338Z,2.37
2022-11-05T14:54:58.947Z,4.85
2022-11-05T14:58:02.508Z,3.15
2022-11-05T15:00:51.654Z,2.72
2022-11-05T15:03:42.544Z,3.72
2022-11-05T15:06:27.826Z,6.23
2022-11-05T15:09:21.095Z,5.45
2022-11-05T15:12:19.746Z,5.38
2022-11-05T15:14:57.091Z,3.72
2022-11-05T15:17:27.377Z,2.88
2022-11-05T15:19:54.540Z,3.13
2022-11-05T15:22:32.708Z,3.83
2022-11-05T15:25:00.955Z,3.67
2022-11-05T15:27:46.812Z,5.15
2022-11-05T15:30:16.091Z,3.33
2022-11-05T15:32:42.718Z,4.13
2022-11-05T15:35:21.619Z,1.83
2022-11-05T15:37:54.599Z,2.78
2022-11-05T15:40:26.674Z,4.18
2022-11-05T15:43:14.527Z,2.97
2022-11-05T15:45:41.384Z,2.23
2022-11-05T15:48:15.462Z,3.88
2022-11-05T15:50:42.382Z,2.17
2022-11-05T15:53:37.454Z,7.05
2022-11-05T15:56:12.072Z,5.63
2022-11-05T15:58:47.136Z,2.77
2022-11-05T16:01:25.127Z,3.63
2022-11-05T16:03:53.788Z,2.70
2022-11-05T16:06:21.008Z,2.05
2022-11-05T16:08:51.294Z,3.38
2022-11-05T16:11:22.705Z,4.50
2022-11-05T16:13:51.730Z,5.88
2022-11-05T16:16:34.986Z,4.75
2022-11-05T16:19:01.531Z,4.35
2022-11-05T16:21:28.545Z,2.63
2022-11-05T16:23:57.137Z,2.93
2022-11-05T16:27:02.357Z,2.75
2022-11-05T16:29:27.353Z,3.25
2022-11-05T16:31:56.733Z,3.58
2022-11-05T16:34:29.032Z,6.07
2022-11-05T16:36:56.516Z,5.13
2022-11-05T16:39:23.535Z,3.80
2022-11-05T16:41:50.062Z,3.80
2022-11-05T16:44:16.695Z,3.90
2022-11-05T16:46:48.718Z,4.38
2022-11-05T16:49:16.401Z,4.77
2022-11-05T16:51:43.468Z,2.38
2022-11-05T16:54:10.915Z,3.75
2022-11-05T16:56:39.348Z,5.03
2022-11-05T16:59:06.062Z,2.65
2022-11-05T17:01:34.584Z,6.00
2022-11-05T17:04:02.885Z,3.05
2022-11-05T17:06:29.631Z,3.15
2022-11-05T17:08:56.504Z,2.45
2022-11-05T17:11:23.169Z,3.33
2022-11-05T17:13:50.351Z,2.30
2022-11-05T17:16:17.703Z,4.30
2022-11-05T17:18:44.750Z,4.45
2022-11-05T17:21:12.886Z,2.33
2022-11-05T17:23:39.984Z,2.38
2022-11-05T17:26:09.809Z,2.40
2022-11-05T17:28:37.461Z,5.38
2022-11-05T17:31:06.369Z,4.43
2022-11-05T17:33:33.786Z,2.67
2022-11-05T17:36:05.060Z,5.25
2022-11-05T17:38:33.189Z,3.07
2022-11-05T17:40:59.947Z,3.35
2022-11-05T17:43:26.531Z,6.55
2022-11-05T17:45:53.765Z,4.38
2022-11-05T17:48:21.008Z,4.18
2022-11-05T17:50:49.673Z,8.10
2022-11-05T17:53:20.045Z,4.15
2022-11-05T17:55:48.291Z,4.03
2022-11-05T17:58:15.045Z,4.88
2022-11-05T18:00:42.970Z,3.47
2022-11-05T18:03:11.409Z,4.63
2022-11-05T18:05:38.409Z,5.03
2022-11-05T18:08:05.795Z,3.92
2022-11-05T18:10:33.060Z,3.72
2022-11-05T18:13:01.052Z,5.97
2022-11-05T18:15:27.987Z,4.07
2022-11-05T18:17:54.794Z,3.67
2022-11-05T18:20:21.349Z,3.40
2022-11-05T18:22:50.077Z,4.57
2022-11-05T18:25:19.086Z,6.22
2022-11-05T18:27:46.004Z,4.37
2022-11-05T18:30:14.459Z,3.63
2022-11-05T18:32:41.123Z,4.68
2022-11-05T18:35:09.360Z,3.80
2022-11-05T18:37:37.890Z,4.68
2022-11-05T18:40:06.355Z,5.00
2022-11-05T18:42:33.011Z,6.60
2022-11-05T18:44:59.535Z,6.57
2022-11-05T18:47:27.957Z,6.20
2022-11-05T18:49:54.467Z,6.93
2022-11-05T18:52:21.070Z,5.70
2022-11-05T18:54:47.771Z,4.30
2022-11-05T18:57:14.335Z,7.32
2022-11-05T18:59:40.876Z,5.15
2022-11-05T19:02:08.528Z,5.05
2022-11-05T19:04:37.532Z,6.07
2022-11-05T19:07:05.394Z,6.50
2022-11-05T19:09:32.397Z,8.70
2022-11-05T19:11:59.006Z,4.28
2022-11-05T19:14:27.685Z,6.25
2022-11-05T19:16:54.230Z,3.60
2022-11-05T19:19:23.234Z,6.80
2022-11-05T19:21:51.627Z,3.80
2022-11-05T19:24:18.526Z,4.10
2022-11-05T19:26:45.660Z,4.47
2022-11-05T19:29:12.443Z,5.00
2022-11-05T19:31:39.426Z,5.13
2022-11-05T19:34:05.965Z,3.88
2022-11-05T19:36:33.683Z,11.35
2022-11-05T19:39:06.744Z,5.50
2022-11-05T19:41:35.700Z,8.17
2022-11-05T19:44:04.613Z,5.03
2022-11-05T19:46:32.092Z,6.78
2022-11-05T19:48:59.957Z,8.05
2022-11-05T19:51:28.886Z,6.25
2022-11-05T19:53:55.919Z,5.00
2022-11-05T19:56:25.495Z,9.88
2022-11-05T19:58:52.830Z,6.85
2022-11-05T20:01:21.407Z,7.82
2022-11-05T20:03:48.607Z,7.43
2022-11-05T20:06:20.892Z,19.53
2022-11-05T20:11:38.136Z,6.18
2022-11-05T20:14:06.982Z,7.85
2022-11-05T20:16:35.017Z,6.72
2022-11-05T20:19:01.714Z,6.20
2022-11-05T20:21:28.384Z,10.63
2022-11-05T20:23:55.597Z,8.60
2022-11-05T20:26:22.511Z,8.13
2022-11-05T20:28:50.632Z,11.38
2022-11-05T20:31:19.508Z,6.33
2022-11-05T20:33:46.648Z,6.75
2022-11-05T20:36:15.979Z,6.45
2022-11-05T20:38:43.224Z,9.93
2022-11-05T20:41:13.364Z,11.55
2022-11-05T20:43:40.809Z,11.07
2022-11-05T20:46:13.672Z,8.48
2022-11-05T20:48:41.032Z,8.82
2022-11-05T20:51:09.985Z,8.23
2022-11-05T20:53:37.470Z,8.45
2022-11-05T20:56:07.956Z,10.70
2022-11-05T20:58:38.214Z,10.00
2022-11-05T21:01:05.697Z,8.10
2022-11-05T21:03:34.455Z,8.95
2022-11-05T21:06:03.019Z,9.13
2022-11-05T21:08:29.946Z,11.37
2022-11-05T21:10:57.062Z,9.18
2022-11-05T21:13:24.258Z,9.55
2022-11-05T21:15:52.679Z,7.85
2022-11-05T21:18:22.021Z,9.73
2022-11-05T21:20:50.722Z,8.53
2022-11-05T21:23:17.559Z,7.88
2022-11-05T21:25:45.334Z,10.32
2022-11-05T21:28:13.589Z,10.35
2022-11-05T21:30:42.567Z,10.13
2022-11-05T21:33:09.323Z,7.40
2022-11-05T21:35:39.708Z,7.55
2022-11-05T21:38:07.724Z,11.20
2022-11-05T21:40:34.326Z,9.52
2022-11-05T21:43:00.856Z,10.57
2022-11-05T21:45:28.982Z,8.00
2022-11-05T21:47:55.918Z,11.18
2022-11-05T21:50:23.472Z,15.18
2022-11-05T21:52:50.110Z,11.45
2022-11-05T21:55:18.489Z,9.52
2022-11-05T21:57:45.338Z,11.87
2022-11-05T22:00:12.826Z,10.40
2022-11-05T22:02:39.497Z,10.55
2022-11-05T22:05:07.894Z,8.32
2022-11-05T22:07:36.560Z,10.63
2022-11-05T22:10:05.518Z,10.00
2022-11-05T22:12:34.160Z,7.68
2022-11-05T22:15:02.796Z,9.50
2022-11-05T22:17:31.255Z,9.65
2022-11-05T22:19:58.548Z,7.10
2022-11-05T22:22:25.363Z,6.20
2022-11-05T22:24:53.129Z,9.98
2022-11-05T22:27:20.796Z,14.27
2022-11-05T22:29:49.218Z,9.10
2022-11-05T22:32:16.882Z,9.15
2022-11-05T22:34:45.307Z,10.83
2022-11-05T22:37:12.932Z,9.15
2022-11-05T22:39:40.419Z,10.05
2022-11-05T22:42:09.086Z,8.20
2022-11-05T22:44:36.493Z,11.52
2022-11-05T22:47:04.894Z,11.47
2022-11-05T22:49:32.691Z,10.25
2022-11-05T22:51:59.767Z,10.50
2022-11-05T22:54:26.325Z,12.25
2022-11-05T22:56:53.069Z,8.40
2022-11-05T22:59:19.973Z,6.47
2022-11-05T23:01:47.110Z,14.52
2022-11-05T23:04:16.061Z,8.38
2022-11-05T23:06:43.434Z,9.55
2022-11-05T23:09:14.362Z,11.20
2022-11-05T23:11:41.940Z,8.03
2022-11-05T23:14:11.090Z,8.43
2022-11-05T23:16:38.677Z,8.85
2022-11-05T23:19:05.213Z,10.25
2022-11-05T23:21:33.414Z,8.98
2022-11-05T23:23:59.963Z,6.57
2022-11-05T23:26:29.716Z,8.73
2022-11-05T23:28:58.670Z,6.88
2022-11-05T23:31:25.390Z,7.57
2022-11-05T23:33:52.374Z,6.72
2022-11-05T23:36:18.951Z,11.90
2022-11-05T23:38:46.917Z,6.78
2022-11-05T23:41:16.700Z,7.68
2022-11-05T23:43:43.255Z,6.95
2022-11-05T23:46:10.035Z,9.20
2022-11-05T23:48:37.986Z,7.77
2022-11-05T23:51:06.553Z,7.72
2022-11-05T23:53:35.300Z,8.98
2022-11-05T23:56:06.495Z,7.25
2022-11-05T23:58:33.683Z,9.50
